Time;durP1;ratioP1;P1;durP2;ratioP2;P2;SDS_P1;SDS_P2;PMS_P1;PMS_P2;Temp;Humidity;BMP_temperature;BMP_pressure;BME280_temperature;BME280_humidity;BME280_pressure;Samples;Min_cycle;Max_cycle;Signal;HPM_P1;HPM_P2
2022/09/04 00:00:20;;;;;;;0.20;0.20;;;15.90;94.80;;;;;;5082021;28;20046;-81
2022/09/04 00:03:19;;;;;;;0.28;0.28;;;15.90;94.80;;;;;;5048910;28;20041;-81
2022/09/04 00:05:59;;;;;;;0.32;0.30;;;15.80;95.00;;;;;;5049264;28;20115;-81
2022/09/04 00:09:07;;;;;;;0.32;0.30;;;15.80;94.40;;;;;;5049352;28;20037;-81
2022/09/04 00:11:53;;;;;;;0.38;0.20;;;15.70;95.40;;;;;;5065710;28;20076;-81
2022/09/04 00:14:31;;;;;;;0.20;0.15;;;15.60;94.80;;;;;;5068335;28;20089;-82
2022/09/04 00:17:37;;;;;;;0.20;0.20;;;15.60;95.40;;;;;;5065560;28;20044;-81
2022/09/04 00:20:11;;;;;;;0.20;0.20;;;15.50;95.30;;;;;;5021739;28;20408;-81
2022/09/04 00:22:59;;;;;;;0.20;0.20;;;15.50;95.20;;;;;;5065378;28;20046;-81
2022/09/04 00:25:35;;;;;;;0.22;0.20;;;15.50;95.60;;;;;;5048789;28;20042;-81
2022/09/04 00:28:29;;;;;;;0.32;0.32;;;15.50;95.20;;;;;;5085505;28;20044;-81
2022/09/04 00:31:05;;;;;;;0.20;0.20;;;15.40;95.80;;;;;;5052952;28;20110;-81
2022/09/04 00:33:58;;;;;;;0.10;0.10;;;15.40;95.70;;;;;;5085889;28;20120;-81
2022/09/04 00:36:26;;;;;;;0.20;0.20;;;15.40;95.90;;;;;;5052826;28;20041;-81
2022/09/04 00:38:59;;;;;;;0.03;0.03;;;15.30;96.00;;;;;;5052889;28;20077;-81
2022/09/04 00:41:39;;;;;;;0.57;0.38;;;15.30;95.50;;;;;;5085887;28;20371;-81
2022/09/04 00:44:33;;;;;;;0.20;0.20;;;15.20;95.60;;;;;;5085776;28;20490;-82
2022/09/04 00:47:26;;;;;;;0.17;0.17;;;15.20;96.00;;;;;;5052643;28;20037;-81
2022/09/04 00:50:10;;;;;;;0.20;0.20;;;15.20;96.00;;;;;;5069479;28;20041;-81
2022/09/04 00:52:56;;;;;;;0.32;0.30;;;15.20;95.80;;;;;;5052522;28;20493;-81
2022/09/04 00:55:41;;;;;;;0.15;0.10;;;15.10;96.10;;;;;;5052111;28;20046;-81
2022/09/04 00:58:20;;;;;;;0.20;0.20;;;15.10;96.00;;;;;;5069291;28;20386;-81
2022/09/04 01:00:48;;;;;;;0.20;0.20;;;15.10;95.90;;;;;;5052903;28;20040;-81
2022/09/04 01:03:48;;;;;;;0.35;0.30;;;15.10;96.40;;;;;;5052278;28;20073;-81
2022/09/04 01:06:59;;;;;;;0.30;0.30;;;15.00;96.40;;;;;;5052221;28;20080;-82
2022/09/04 01:09:36;;;;;;;0.30;0.30;;;15.00;96.70;;;;;;4976224;28;20134;-81
2022/09/04 01:12:30;;;;;;;0.30;0.30;;;14.90;97.00;;;;;;5042272;28;20064;-81
2022/09/04 01:15:10;;;;;;;0.10;0.10;;;14.90;97.00;;;;;;5052173;28;20080;-81
2022/09/04 01:17:47;;;;;;;0.10;0.10;;;14.80;96.90;;;;;;5052134;28;20105;-81
2022/09/04 01:20:14;;;;;;;0.30;0.30;;;14.80;97.00;;;;;;5051880;28;20042;-82
2022/09/04 01:22:51;;;;;;;0.10;0.10;;;14.80;97.10;;;;;;5052072;28;20490;-81
2022/09/04 01:25:29;;;;;;;0.30;0.25;;;14.80;97.10;;;;;;5051541;28;20056;-82
2022/09/04 01:28:08;;;;;;;0.13;0.13;;;14.80;97.30;;;;;;5051733;28;20068;-81
2022/09/04 01:31:01;;;;;;;0.20;0.20;;;14.70;96.80;;;;;;5051745;28;20493;-81
2022/09/04 01:33:53;;;;;;;0.65;0.65;;;14.70;96.60;;;;;;5068175;28;20402;-82
2022/09/04 01:36:47;;;;;;;0.35;0.35;;;14.70;97.00;;;;;;5051583;28;20042;-82
2022/09/04 01:39:17;;;;;;;0.20;0.20;;;14.80;97.20;;;;;;5050916;28;20041;-82
2022/09/04 01:41:56;;;;;;;0.30;0.30;;;14.70;96.40;;;;;;5051601;28;20038;-82
2022/09/04 01:44:24;;;;;;;0.20;0.20;;;14.70;96.80;;;;;;5068193;28;20100;-81
2022/09/04 01:47:07;;;;;;;0.10;0.10;;;14.80;96.70;;;;;;5035476;28;20124;-82
2022/09/04 01:49:54;;;;;;;0.25;0.25;;;14.70;97.20;;;;;;5068153;28;20045;-81
2022/09/04 01:52:38;;;;;;;0.20;0.20;;;14.70;97.60;;;;;;5067798;28;20099;-81
2022/09/04 01:55:16;;;;;;;0.40;0.28;;;14.70;97.30;;;;;;5051442;28;20037;-81
2022/09/04 01:57:55;;;;;;;0.43;0.20;;;14.70;97.60;;;;;;5051147;28;20037;-81
2022/09/04 02:00:23;;;;;;;0.20;0.20;;;14.50;97.70;;;;;;5041588;28;20042;-82
2022/09/04 02:03:09;;;;;;;0.22;0.22;;;14.50;97.70;;;;;;5019017;28;20116;-82
2022/09/04 02:06:14;;;;;;;0.10;0.10;;;14.50;98.00;;;;;;5059144;28;20071;-81
2022/09/04 02:08:46;;;;;;;0.45;0.40;;;14.40;97.30;;;;;;5056656;28;20395;-81
2022/09/04 02:11:19;;;;;;;0.13;0.10;;;14.50;97.30;;;;;;5050851;28;20053;-81
2022/09/04 02:14:08;;;;;;;0.22;0.20;;;14.50;97.80;;;;;;5051141;28;20095;-81
2022/09/04 02:17:02;;;;;;;0.85;0.50;;;14.50;98.00;;;;;;5067582;28;20136;-82
2022/09/04 02:19:47;;;;;;;0.20;0.20;;;14.50;97.70;;;;;;5067327;28;20045;-82
2022/09/04 02:22:30;;;;;;;0.25;0.22;;;14.50;97.70;;;;;;5050981;28;20037;-81
2022/09/04 02:25:16;;;;;;;0.20;0.20;;;14.40;98.30;;;;;;5067424;28;20037;-81
2022/09/04 02:28:12;;;;;;;0.20;0.20;;;14.40;97.50;;;;;;5050797;28;20041;-81
2022/09/04 02:30:59;;;;;;;0.30;0.20;;;14.40;97.70;;;;;;5083680;28;20405;-81
2022/09/04 02:33:36;;;;;;;0.10;0.10;;;14.40;98.10;;;;;;5050563;28;20076;-82
2022/09/04 02:36:52;;;;;;;0.20;0.20;;;14.30;97.80;;;;;;5050807;28;20041;-81
2022/09/04 02:39:36;;;;;;;0.20;0.20;;;14.40;98.20;;;;;;4974895;28;20522;-81
2022/09/04 02:42:18;;;;;;;0.20;0.20;;;14.30;98.10;;;;;;4974906;28;20042;-81
2022/09/04 02:45:19;;;;;;;0.17;0.17;;;14.30;98.50;;;;;;5065902;28;20053;-81
2022/09/04 02:48:16;;;;;;;0.32;0.30;;;14.30;98.20;;;;;;5050313;28;20041;-81
2022/09/04 02:50:52;;;;;;;0.20;0.20;;;14.30;98.30;;;;;;5066690;28;20468;-81
2022/09/04 02:53:34;;;;;;;0.20;0.20;;;14.20;98.00;;;;;;5050137;28;20428;-81
2022/09/04 02:56:12;;;;;;;0.38;0.25;;;14.10;98.40;;;;;;5066956;28;20037;-81
2022/09/04 02:58:50;;;;;;;0.32;0.25;;;14.20;98.60;;;;;;5050175;28;20149;-81
2022/09/04 03:01:44;;;;;;;0.13;0.10;;;14.10;98.40;;;;;;5067091;28;20048;-81
2022/09/04 03:04:21;;;;;;;0.20;0.20;;;14.20;98.40;;;;;;5066585;28;20054;-81
2022/09/04 03:06:50;;;;;;;0.40;0.30;;;14.10;98.30;;;;;;5066266;28;20493;-81
2022/09/04 03:09:56;;;;;;;0.20;0.20;;;14.10;98.80;;;;;;5066606;28;20455;-81
2022/09/04 03:12:47;;;;;;;0.73;0.50;;;14.10;98.90;;;;;;5063390;28;20140;-81
2022/09/04 03:15:26;;;;;;;0.10;0.10;;;14.00;98.80;;;;;;5066345;28;20056;-81
2022/09/04 03:18:20;;;;;;;0.50;0.30;;;14.00;98.90;;;;;;5066467;28;20147;-81
2022/09/04 03:21:02;;;;;;;0.20;0.20;;;14.00;99.30;;;;;;5065826;28;20040;-81
2022/09/04 03:24:10;;;;;;;0.30;0.30;;;13.90;99.30;;;;;;5082637;28;20396;-82
2022/09/04 03:26:40;;;;;;;0.40;0.30;;;13.90;98.90;;;;;;5082822;28;20037;-81
2022/09/04 03:29:13;;;;;;;0.20;0.20;;;13.80;99.50;;;;;;5082582;28;20034;-82
2022/09/04 03:32:19;;;;;;;0.20;0.20;;;13.80;99.40;;;;;;5049862;28;20083;-81
2022/09/04 03:34:54;;;;;;;0.40;0.30;;;13.80;99.50;;;;;;5065616;28;20516;-81
2022/09/04 03:37:37;;;;;;;0.57;0.38;;;13.80;99.10;;;;;;5049776;28;20069;-81
2022/09/04 03:40:31;;;;;;;0.15;0.15;;;13.80;98.70;;;;;;5049578;28;20049;-81
2022/09/04 03:43:31;;;;;;;0.75;0.40;;;13.80;99.50;;;;;;5049626;28;20463;-81
2022/09/04 03:46:16;;;;;;;0.20;0.20;;;13.80;99.00;;;;;;5049298;28;20041;-81
2022/09/04 03:48:47;;;;;;;0.20;0.20;;;13.80;99.10;;;;;;5065646;28;20191;-81
2022/09/04 03:51:16;;;;;;;0.20;0.13;;;13.70;99.20;;;;;;5065806;28;20049;-82
2022/09/04 03:54:02;;;;;;;0.30;0.30;;;13.80;99.80;;;;;;5082081;28;20048;-82
2022/09/04 03:56:56;;;;;;;0.38;0.38;;;13.70;99.80;;;;;;5065642;28;20057;-82
2022/09/04 03:59:24;;;;;;;0.30;0.28;;;13.70;99.30;;;;;;5065814;28;20045;-81
2022/09/04 04:02:00;;;;;;;0.40;0.30;;;13.60;99.50;;;;;;5081380;28;20386;-81
2022/09/04 04:04:41;;;;;;;0.20;0.20;;;13.60;99.50;;;;;;5065977;28;20037;-81
2022/09/04 04:07:34;;;;;;;0.20;0.20;;;13.60;99.80;;;;;;5065967;28;20049;-81
2022/09/04 04:10:07;;;;;;;0.20;0.20;;;13.60;99.90;;;;;;5016462;28;20049;-81
2022/09/04 04:12:33;;;;;;;0.40;0.40;;;13.50;99.60;;;;;;5045482;28;20049;-82
2022/09/04 04:15:20;;;;;;;0.20;0.20;;;13.60;99.70;;;;;;5045627;28;20041;-81
2022/09/04 04:18:42;;;;;;;0.30;0.30;;;13.50;99.40;;;;;;5029196;28;20044;-81
2022/09/04 04:21:11;;;;;;;0.20;0.20;;;13.50;99.90;;;;;;4989425;28;20035;-81
2022/09/04 04:24:01;;;;;;;0.75;0.40;;;13.40;99.90;;;;;;5042695;28;20488;-82
2022/09/04 04:26:52;;;;;;;0.20;0.20;;;13.50;99.70;;;;;;5029320;28;20040;-81
2022/09/04 04:29:40;;;;;;;0.28;0.28;;;13.40;99.90;;;;;;5050275;28;20117;-81
2022/09/04 04:32:29;;;;;;;0.30;0.25;;;13.40;99.90;;;;;;5063376;28;20104;-82
2022/09/04 04:35:14;;;;;;;0.52;0.28;;;13.40;99.90;;;;;;5045047;28;20042;-82
2022/09/04 04:37:50;;;;;;;0.20;0.20;;;13.40;99.90;;;;;;5028397;28;20132;-82
2022/09/04 04:40:17;;;;;;;;;;;13.40;99.90;;;;;;5029487;28;20042;-81
2022/09/04 04:43:04;;;;;;;0.80;0.30;;;13.30;99.90;;;;;;5029040;28;19929;-82
2022/09/04 04:45:49;;;;;;;0.50;0.40;;;13.30;99.90;;;;;;5048315;28;20236;-81
2022/09/04 04:48:53;;;;;;;0.20;0.20;;;13.30;99.90;;;;;;5048489;28;20438;-81
2022/09/04 04:51:41;;;;;;;0.88;0.60;;;13.30;99.90;;;;;;5065313;28;20045;-82
2022/09/04 04:54:35;;;;;;;0.17;0.17;;;13.30;99.90;;;;;;5065876;28;20045;-82
2022/09/04 04:57:11;;;;;;;0.40;0.40;;;13.20;99.90;;;;;;5081559;28;20037;-82
2022/09/04 05:00:14;;;;;;;0.20;0.20;;;13.20;99.90;;;;;;5045566;28;20038;-82
2022/09/04 05:03:06;;;;;;;0.47;0.38;;;13.20;99.90;;;;;;5044922;28;20057;-82
2022/09/04 05:05:39;;;;;;;0.25;0.25;;;13.20;99.90;;;;;;5045244;28;20498;-81
2022/09/04 05:08:19;;;;;;;0.20;0.20;;;13.20;99.90;;;;;;5028817;28;20405;-82
2022/09/04 05:11:09;;;;;;;0.35;0.30;;;13.20;99.90;;;;;;5037780;28;20460;-81
2022/09/04 05:14:02;;;;;;;0.63;0.45;;;13.20;99.90;;;;;;5049568;28;20037;-82
2022/09/04 05:16:51;;;;;;;0.70;0.50;;;13.30;99.90;;;;;;5052383;28;20087;-81
2022/09/04 05:19:33;;;;;;;0.25;0.25;;;13.30;99.90;;;;;;5052007;28;20033;-81
2022/09/04 05:22:21;;;;;;;0.25;0.25;;;13.40;99.90;;;;;;5051841;28;20100;-81
2022/09/04 05:25:13;;;;;;;0.30;0.30;;;13.40;99.90;;;;;;5068395;28;20037;-82
2022/09/04 05:27:57;;;;;;;0.20;0.20;;;13.50;99.90;;;;;;5052355;28;20045;-82
2022/09/04 05:30:57;;;;;;;0.20;0.20;;;13.60;99.90;;;;;;5051933;28;20037;-82
2022/09/04 05:33:35;;;;;;;0.43;0.40;;;13.60;99.90;;;;;;5052101;28;20051;-81
2022/09/04 05:36:08;;;;;;;0.28;0.28;;;13.70;99.90;;;;;;5048024;28;20050;-81
2022/09/04 05:38:44;;;;;;;0.40;0.40;;;13.70;99.90;;;;;;5048360;28;20046;-82
2022/09/04 05:41:16;;;;;;;0.20;0.20;;;13.70;99.90;;;;;;5048367;28;20402;-81
2022/09/04 05:44:05;;;;;;;0.20;0.20;;;13.60;99.90;;;;;;5048388;28;20053;-81
2022/09/04 05:46:44;;;;;;;0.30;0.20;;;13.60;99.90;;;;;;5064663;28;20108;-81
2022/09/04 05:49:36;;;;;;;0.30;0.30;;;13.70;99.90;;;;;;5067505;28;20045;-81
2022/09/04 05:52:40;;;;;;;0.20;0.20;;;13.70;99.90;;;;;;5051363;28;20056;-82
2022/09/04 05:55:30;;;;;;;0.43;0.22;;;13.70;99.90;;;;;;5067464;28;20085;-81
2022/09/04 05:58:21;;;;;;;0.25;0.25;;;13.80;99.90;;;;;;5067974;28;20076;-82
2022/09/04 06:01:17;;;;;;;0.30;0.30;;;13.80;99.90;;;;;;5067342;28;20400;-82
2022/09/04 06:04:15;;;;;;;0.88;0.25;;;13.80;99.90;;;;;;5084427;28;20093;-81
2022/09/04 06:07:06;;;;;;;0.38;0.30;;;13.80;99.90;;;;;;5067632;28;20041;-81
2022/09/04 06:09:42;;;;;;;0.30;0.30;;;13.90;99.90;;;;;;5050870;28;20390;-81
2022/09/04 06:12:23;;;;;;;0.30;0.25;;;13.90;99.90;;;;;;5067243;28;20448;-81
2022/09/04 06:15:09;;;;;;;0.77;0.40;;;13.90;99.90;;;;;;5083980;28;20044;-82
2022/09/04 06:18:00;;;;;;;0.35;0.30;;;14.10;99.90;;;;;;5067664;28;20038;-81
2022/09/04 06:20:51;;;;;;;0.75;0.43;;;14.10;99.90;;;;;;5067216;28;20052;-81
2022/09/04 06:23:23;;;;;;;0.93;0.38;;;14.20;99.90;;;;;;5054582;28;20045;-82
2022/09/04 06:26:20;;;;;;;0.63;0.30;;;14.30;99.90;;;;;;5041166;28;20038;-82
2022/09/04 06:28:50;;;;;;;0.30;0.30;;;14.40;99.90;;;;;;5036752;28;20041;-82
2022/09/04 06:31:20;;;;;;;0.30;0.20;;;14.50;99.90;;;;;;5050165;28;20034;-81
2022/09/04 06:34:10;;;;;;;0.22;0.22;;;14.60;99.90;;;;;;5050607;28;20053;-80
2022/09/04 06:37:02;;;;;;;0.43;0.43;;;14.60;99.90;;;;;;5053856;28;20053;-81
2022/09/04 06:40:08;;;;;;;0.30;0.30;;;14.60;99.90;;;;;;5039334;28;20033;-81
2022/09/04 06:42:57;;;;;;;0.30;0.30;;;14.70;99.90;;;;;;5030786;28;20486;-81
2022/09/04 06:45:27;;;;;;;0.25;0.25;;;14.70;99.90;;;;;;5034121;28;20127;-81
2022/09/04 06:48:12;;;;;;;0.22;0.22;;;14.70;99.90;;;;;;5060871;28;20037;-82
2022/09/04 06:51:16;;;;;;;0.20;0.20;;;14.80;99.90;;;;;;5044825;28;20048;-82
2022/09/04 06:54:14;;;;;;;0.45;0.30;;;14.90;99.90;;;;;;5059705;28;20084;-81
2022/09/04 06:57:19;;;;;;;0.30;0.30;;;14.90;99.90;;;;;;5064130;28;20041;-81
2022/09/04 07:00:07;;;;;;;0.20;0.10;;;15.00;99.90;;;;;;5049961;28;20378;-81
2022/09/04 07:02:55;;;;;;;0.43;0.40;;;15.10;99.90;;;;;;5042209;28;20053;-81
2022/09/04 07:05:22;;;;;;;0.43;0.40;;;15.10;99.90;;;;;;5042011;28;20045;-81
2022/09/04 07:08:04;;;;;;;0.30;0.30;;;15.20;99.90;;;;;;5066182;28;20045;-81
2022/09/04 07:10:35;;;;;;;0.20;0.20;;;15.30;99.90;;;;;;5053583;28;20046;-81
2022/09/04 07:13:46;;;;;;;0.40;0.40;;;15.40;99.90;;;;;;5049504;28;20049;-81
2022/09/04 07:16:42;;;;;;;0.40;0.40;;;15.40;99.90;;;;;;4978081;28;20070;-81
2022/09/04 07:19:38;;;;;;;0.80;0.30;;;15.60;99.90;;;;;;5048686;28;20045;-80
2022/09/04 07:22:36;;;;;;;0.28;0.28;;;15.70;99.90;;;;;;5062407;28;20038;-80
2022/09/04 07:25:43;;;;;;;0.25;0.25;;;15.80;99.90;;;;;;5037619;28;20516;-80
2022/09/04 07:28:42;;;;;;;0.30;0.30;;;15.90;99.90;;;;;;5029043;28;20046;-80
2022/09/04 07:31:23;;;;;;;0.55;0.30;;;16.10;99.90;;;;;;5048278;28;20041;-81
2022/09/04 07:34:07;;;;;;;0.40;0.35;;;16.30;99.90;;;;;;5082688;28;20042;-80
2022/09/04 07:37:04;;;;;;;0.20;0.20;;;16.30;99.90;;;;;;5065060;28;20045;-81
2022/09/04 07:39:53;;;;;;;0.28;0.28;;;16.50;99.90;;;;;;5049313;28;20124;-81
2022/09/04 07:42:47;;;;;;;0.98;0.40;;;16.60;99.90;;;;;;5049221;28;20567;-80
2022/09/04 07:45:28;;;;;;;0.35;0.35;;;16.80;99.90;;;;;;5039691;28;20050;-80
2022/09/04 07:47:58;;;;;;;0.30;0.30;;;16.90;99.70;;;;;;5063734;28;20052;-80
2022/09/04 07:50:34;;;;;;;0.38;0.30;;;17.10;99.70;;;;;;5043679;28;20038;-81
2022/09/04 07:53:03;;;;;;;0.55;0.38;;;17.30;99.90;;;;;;5048428;28;20090;-80
2022/09/04 07:55:39;;;;;;;0.65;0.50;;;17.40;99.60;;;;;;5068654;28;20132;-81
2022/09/04 07:58:36;;;;;;;0.32;0.32;;;17.50;99.10;;;;;;5035711;28;20042;-80
2022/09/04 08:01:39;;;;;;;0.38;0.30;;;17.80;99.10;;;;;;5046194;28;20501;-80
2022/09/04 08:04:39;;;;;;;1.30;0.40;;;17.90;98.60;;;;;;5052573;28;20096;-80
2022/09/04 08:07:32;;;;;;;0.45;0.40;;;18.10;98.90;;;;;;5022335;28;20417;-81
2022/09/04 08:10:19;;;;;;;0.30;0.30;;;18.30;98.70;;;;;;5018835;28;20045;-81
2022/09/04 08:13:09;;;;;;;0.45;0.25;;;18.40;98.70;;;;;;5048549;28;20043;-82
2022/09/04 08:15:48;;;;;;;0.30;0.30;;;18.50;98.90;;;;;;5055516;28;20505;-77
2022/09/04 08:18:53;;;;;;;0.45;0.30;;;18.60;98.60;;;;;;5032202;28;20030;-83
2022/09/04 08:21:26;;;;;;;0.50;0.40;;;18.80;99.10;;;;;;5047672;28;20054;-82
2022/09/04 08:24:03;;;;;;;0.35;0.28;;;18.80;98.10;;;;;;5047603;28;20091;-82
2022/09/04 08:27:14;;;;;;;0.40;0.30;;;19.00;98.40;;;;;;5037188;28;20387;-82
2022/09/04 08:29:56;;;;;;;0.43;0.38;;;19.00;99.00;;;;;;5046922;28;20127;-82
2022/09/04 08:32:47;;;;;;;1.35;0.60;;;19.20;98.30;;;;;;5044168;28;20057;-80
2022/09/04 08:35:22;;;;;;;0.40;0.38;;;19.20;98.30;;;;;;5048185;28;20050;-81
2022/09/04 08:38:43;;;;;;;0.30;0.30;;;19.40;98.00;;;;;;5061219;28;20069;-81
2022/09/04 08:41:36;;;;;;;0.57;0.45;;;19.60;97.20;;;;;;5037098;28;20433;-82
2022/09/04 08:44:20;;;;;;;0.38;0.28;;;19.80;97.30;;;;;;5057746;28;20052;-82
2022/09/04 08:46:47;;;;;;;0.30;0.30;;;20.00;97.20;;;;;;5060245;28;20038;-81
2022/09/04 08:49:42;;;;;;;0.55;0.20;;;20.10;96.80;;;;;;5056746;28;20390;-81
2022/09/04 08:52:27;;;;;;;0.30;0.30;;;20.20;96.50;;;;;;5068356;28;20091;-82
2022/09/04 08:55:18;;;;;;;0.50;0.40;;;20.30;96.80;;;;;;5046278;28;20482;-82
2022/09/04 08:58:04;;;;;;;0.73;0.73;;;20.40;96.60;;;;;;5068909;28;20096;-82
2022/09/04 09:00:52;;;;;;;0.35;0.35;;;20.50;96.80;;;;;;5064751;28;20233;-80
2022/09/04 09:03:46;;;;;;;0.20;0.20;;;20.60;96.70;;;;;;5071298;28;20043;-81
2022/09/04 09:06:23;;;;;;;0.57;0.35;;;20.80;97.00;;;;;;5033269;28;20057;-81
2022/09/04 09:09:04;;;;;;;0.35;0.30;;;21.00;96.80;;;;;;5064296;28;20482;-80
2022/09/04 09:12:09;;;;;;;0.20;0.20;;;21.10;96.40;;;;;;5047021;28;20489;-81
2022/09/04 09:15:08;;;;;;;0.85;0.55;;;21.30;96.60;;;;;;5030421;28;20054;-81
2022/09/04 09:17:38;;;;;;;0.50;0.38;;;21.50;96.40;;;;;;5065994;28;20034;-81
2022/09/04 09:20:16;;;;;;;0.47;0.47;;;21.60;96.50;;;;;;5063373;28;20104;-81
2022/09/04 09:23:15;;;;;;;0.93;0.47;;;21.70;95.80;;;;;;5049137;28;20564;-81
2022/09/04 09:26:13;;;;;;;0.20;0.20;;;21.80;96.10;;;;;;5032867;28;20401;-81
2022/09/04 09:28:49;;;;;;;0.55;0.50;;;21.90;95.60;;;;;;5040097;28;20033;-81
2022/09/04 09:32:00;;;;;;;0.30;0.30;;;21.90;95.50;;;;;;5051629;28;20500;-80
2022/09/04 09:34:56;;;;;;;0.22;0.20;;;22.00;95.40;;;;;;5045309;28;20120;-81
2022/09/04 09:37:25;;;;;;;;;;;22.20;95.40;;;;;;5040543;28;20494;-82
2022/09/04 09:40:23;;;;;;;0.22;0.22;;;22.30;95.40;;;;;;5064728;28;19917;-80
2022/09/04 09:43:08;;;;;;;0.57;0.45;;;22.50;94.90;;;;;;5031535;28;20103;-81
2022/09/04 09:46:10;;;;;;;0.93;0.57;;;22.50;94.60;;;;;;5047597;28;20517;-80
2022/09/04 09:48:39;;;;;;;0.70;0.50;;;22.50;94.90;;;;;;4971589;29;20043;-80
2022/09/04 09:51:12;;;;;;;0.47;0.30;;;22.60;95.30;;;;;;5033466;28;20046;-80
2022/09/04 09:53:57;;;;;;;0.85;0.40;;;22.70;94.30;;;;;;5041747;28;20045;-81
2022/09/04 09:56:54;;;;;;;0.22;0.22;;;22.80;95.30;;;;;;5031167;28;20049;-81
2022/09/04 09:59:38;;;;;;;0.82;0.35;;;22.90;94.70;;;;;;5046468;28;20048;-80
2022/09/04 10:02:32;;;;;;;0.30;0.30;;;23.10;95.20;;;;;;5041719;28;20797;-81
2022/09/04 10:04:59;;;;;;;0.43;0.30;;;23.20;94.30;;;;;;5049838;28;20548;-80
2022/09/04 10:07:31;;;;;;;0.65;0.45;;;23.20;95.00;;;;;;5050493;28;20172;-81
2022/09/04 10:10:24;;;;;;;0.85;0.50;;;23.40;94.50;;;;;;5084168;28;20071;-82
2022/09/04 10:13:26;;;;;;;0.17;0.17;;;23.40;93.80;;;;;;5076997;28;20051;-81
2022/09/04 10:16:14;;;;;;;0.30;0.30;;;23.50;93.80;;;;;;5031038;28;20038;-82
2022/09/04 10:19:15;;;;;;;0.45;0.20;;;23.50;93.80;;;;;;5047241;28;20042;-82
2022/09/04 10:22:10;;;;;;;0.30;0.30;;;23.50;93.90;;;;;;5031190;28;20041;-82
2022/09/04 10:25:16;;;;;;;0.30;0.30;;;23.70;94.50;;;;;;5030453;28;20406;-80
2022/09/04 10:28:33;;;;;;;0.22;0.20;;;23.80;92.90;;;;;;5031000;28;20038;-80
2022/09/04 10:31:43;;;;;;;0.57;0.40;;;23.90;93.90;;;;;;5050888;28;20053;-81
2022/09/04 10:34:35;;;;;;;0.38;0.30;;;23.90;92.70;;;;;;5050146;28;20044;-81
2022/09/04 10:37:32;;;;;;;0.55;0.38;;;24.00;93.00;;;;;;5066831;28;20095;-82
2022/09/04 10:40:37;;;;;;;0.43;0.40;;;24.00;92.90;;;;;;5066723;28;20041;-81
2022/09/04 10:43:25;;;;;;;0.38;0.38;;;24.00;93.50;;;;;;5066450;28;20053;-80
2022/09/04 10:46:10;;;;;;;0.55;0.30;;;24.20;93.70;;;;;;5066618;28;20144;-80
2022/09/04 10:49:14;;;;;;;0.57;0.40;;;24.20;92.70;;;;;;5050155;28;20077;-80
2022/09/04 10:51:41;;;;;;;0.30;0.30;;;24.40;92.80;;;;;;5066428;28;20041;-81
2022/09/04 10:54:32;;;;;;;0.50;0.40;;;24.50;93.20;;;;;;5049942;28;20489;-82
2022/09/04 10:57:40;;;;;;;0.30;0.30;;;24.60;92.70;;;;;;5045652;28;20489;-81
2022/09/04 11:00:17;;;;;;;0.30;0.22;;;24.70;91.80;;;;;;5062137;28;20527;-81
2022/09/04 11:03:10;;;;;;;0.55;0.25;;;24.80;92.70;;;;;;5082041;28;20140;-82
2022/09/04 11:06:01;;;;;;;0.30;0.28;;;24.80;92.70;;;;;;5068005;28;20053;-82
2022/09/04 11:08:49;;;;;;;0.25;0.25;;;24.80;92.20;;;;;;5042156;28;20037;-80
2022/09/04 11:11:18;;;;;;;0.38;0.30;;;24.80;91.90;;;;;;5052731;28;20460;-81
2022/09/04 11:14:24;;;;;;;0.57;0.40;;;24.80;91.90;;;;;;5030550;28;20128;-80
2022/09/04 11:17:12;;;;;;;1.03;0.60;;;24.80;90.60;;;;;;5029675;28;20046;-80
2022/09/04 11:20:14;;;;;;;0.38;0.30;;;24.80;91.40;;;;;;5037439;28;20720;-79
2022/09/04 11:23:06;;;;;;;0.82;0.32;;;24.90;91.60;;;;;;5059326;28;20033;-80
2022/09/04 11:26:04;;;;;;;0.43;0.32;;;24.90;91.60;;;;;;5030088;28;20046;-81
2022/09/04 11:29:09;;;;;;;0.73;0.38;;;24.90;91.10;;;;;;5045946;28;20437;-79
2022/09/04 11:32:00;;;;;;;0.60;0.47;;;24.90;91.10;;;;;;4979212;28;20057;-79
2022/09/04 11:34:47;;;;;;;1.25;0.57;;;24.90;91.40;;;;;;5048661;28;20093;-78
2022/09/04 11:37:28;;;;;;;0.20;0.20;;;24.90;91.50;;;;;;5066114;28;20515;-79
2022/09/04 11:40:17;;;;;;;0.50;0.40;;;24.80;91.10;;;;;;5066272;28;20037;-79
2022/09/04 11:43:02;;;;;;;0.50;0.50;;;24.90;91.80;;;;;;5049861;28;20438;-78
2022/09/04 11:45:57;;;;;;;0.80;0.50;;;24.90;91.70;;;;;;5033180;28;20124;-79
2022/09/04 11:48:55;;;;;;;0.30;0.30;;;25.00;91.40;;;;;;5049411;28;20092;-80
2022/09/04 11:51:44;;;;;;;0.40;0.40;;;25.20;91.30;;;;;;5063908;28;20088;-78
2022/09/04 11:54:50;;;;;;;0.30;0.30;;;25.30;91.10;;;;;;5049966;28;20107;-79
2022/09/04 11:57:28;;;;;;;0.32;0.32;;;25.30;90.30;;;;;;5049637;28;20037;-79
2022/09/04 12:00:10;;;;;;;0.68;0.40;;;25.40;90.60;;;;;;5035351;28;20042;-79
2022/09/04 12:02:43;;;;;;;0.30;0.30;;;25.50;91.20;;;;;;5028842;28;20089;-80
2022/09/04 12:05:46;;;;;;;0.77;0.40;;;25.70;91.10;;;;;;5029454;28;20053;-80
2022/09/04 12:08:50;;;;;;;0.35;0.35;;;25.70;90.30;;;;;;5045785;28;20099;-80
2022/09/04 12:11:41;;;;;;;0.55;0.40;;;25.70;90.30;;;;;;5029524;28;20445;-79
2022/09/04 12:14:32;;;;;;;0.32;0.32;;;25.70;90.40;;;;;;5029345;28;20046;-79
2022/09/04 12:17:37;;;;;;;0.50;0.30;;;25.70;90.10;;;;;;5029644;28;20387;-79
2022/09/04 12:20:37;;;;;;;0.73;0.52;;;25.60;90.50;;;;;;5029375;28;20042;-79
2022/09/04 12:23:26;;;;;;;0.40;0.40;;;25.60;90.50;;;;;;5049695;28;20042;-80
2022/09/04 12:26:12;;;;;;;0.93;0.50;;;25.60;90.20;;;;;;5053291;28;20045;-80
2022/09/04 12:29:11;;;;;;;0.32;0.32;;;25.60;90.20;;;;;;5053132;28;20041;-80
2022/09/04 12:32:02;;;;;;;0.20;0.20;;;25.60;90.00;;;;;;5086137;28;20041;-80
2022/09/04 12:34:53;;;;;;;0.45;0.30;;;25.60;90.60;;;;;;5052706;28;20851;-80
2022/09/04 12:37:47;;;;;;;0.50;0.50;;;25.70;90.20;;;;;;5053232;28;20404;-79
2022/09/04 12:40:30;;;;;;;0.30;0.30;;;25.70;90.10;;;;;;5049556;28;20042;-79
2022/09/04 12:43:15;;;;;;;0.63;0.47;;;25.80;89.00;;;;;;5049482;28;20033;-80
2022/09/04 12:45:48;;;;;;;0.30;0.30;;;25.80;90.30;;;;;;5049032;28;20042;-80
2022/09/04 12:48:18;;;;;;;0.30;0.30;;;25.80;90.50;;;;;;5032850;28;20561;-79
2022/09/04 12:51:00;;;;;;;0.50;0.50;;;25.90;90.20;;;;;;5032403;28;20587;-80
2022/09/04 12:54:07;;;;;;;0.45;0.32;;;25.90;90.40;;;;;;5033161;28;20133;-80
2022/09/04 12:56:44;;;;;;;0.40;0.30;;;26.00;90.00;;;;;;5032392;28;20060;-79
2022/09/04 12:59:28;;;;;;;0.40;0.40;;;25.90;89.90;;;;;;5048977;28;20470;-79
2022/09/04 13:02:13;;;;;;;0.28;0.28;;;25.90;90.10;;;;;;5048697;28;20048;-79
2022/09/04 13:04:58;;;;;;;0.38;0.28;;;25.90;90.00;;;;;;5048626;28;20045;-79
2022/09/04 13:07:58;;;;;;;0.40;0.40;;;26.00;90.10;;;;;;5049115;28;20111;-79
2022/09/04 13:10:56;;;;;;;0.52;0.40;;;26.00;90.20;;;;;;5049046;28;20042;-80
2022/09/04 13:13:41;;;;;;;0.30;0.30;;;26.10;90.20;;;;;;5048648;28;20517;-79
2022/09/04 13:16:24;;;;;;;0.52;0.30;;;26.00;89.60;;;;;;5065130;28;20042;-79
2022/09/04 13:19:10;;;;;;;0.57;0.38;;;26.10;90.20;;;;;;5048508;28;20042;-80
2022/09/04 13:21:58;;;;;;;0.65;0.35;;;26.10;90.20;;;;;;5048460;28;20041;-80
2022/09/04 13:24:43;;;;;;;0.38;0.32;;;26.00;88.20;;;;;;5048867;28;20060;-79
2022/09/04 13:27:33;;;;;;;0.73;0.50;;;26.00;89.90;;;;;;5062922;28;20037;-79
2022/09/04 13:30:17;;;;;;;0.25;0.22;;;26.00;88.90;;;;;;5085080;28;20037;-79
2022/09/04 13:33:16;;;;;;;0.20;0.20;;;26.00;89.70;;;;;;5051792;28;20049;-79
2022/09/04 13:36:04;;;;;;;0.63;0.50;;;26.10;90.00;;;;;;5050380;28;20073;-79
2022/09/04 13:38:52;;;;;;;0.30;0.30;;;26.10;90.10;;;;;;5068466;28;20052;-80
2022/09/04 13:41:25;;;;;;;0.28;0.28;;;26.10;90.20;;;;;;5052056;28;20045;-79
2022/09/04 13:44:19;;;;;;;0.40;0.40;;;26.10;89.50;;;;;;5051502;28;20044;-79
2022/09/04 13:46:58;;;;;;;0.50;0.30;;;26.10;88.80;;;;;;5051475;28;20180;-79
2022/09/04 13:49:35;;;;;;;0.40;0.30;;;26.10;89.70;;;;;;5051685;28;20416;-79
2022/09/04 13:52:12;;;;;;;0.43;0.30;;;26.10;89.10;;;;;;5051460;28;20120;-80
2022/09/04 13:54:45;;;;;;;0.30;0.30;;;26.10;89.80;;;;;;5084322;28;20121;-79
2022/09/04 13:57:26;;;;;;;0.55;0.35;;;26.10;89.70;;;;;;5051715;28;20084;-80
2022/09/04 13:59:59;;;;;;;0.32;0.32;;;26.10;88.70;;;;;;5050954;28;20048;-80
2022/09/04 14:02:27;;;;;;;0.40;0.40;;;26.10;88.60;;;;;;5067628;28;20061;-79
2022/09/04 14:05:03;;;;;;;0.50;0.50;;;26.10;89.40;;;;;;5050909;28;20148;-79
2022/09/04 14:07:35;;;;;;;0.30;0.30;;;26.10;89.40;;;;;;5068246;28;20052;-79
2022/09/04 14:10:09;;;;;;;0.75;0.40;;;26.00;89.30;;;;;;5084080;28;20508;-79
2022/09/04 14:13:03;;;;;;;1.27;0.57;;;26.00;89.30;;;;;;5084122;28;20041;-80
2022/09/04 14:16:02;;;;;;;0.30;0.28;;;26.00;89.50;;;;;;5084037;28;20041;-81
2022/09/04 14:18:58;;;;;;;0.30;0.30;;;26.00;89.50;;;;;;5031512;28;20501;-79
2022/09/04 14:21:39;;;;;;;0.22;0.22;;;26.00;88.70;;;;;;5031431;28;20049;-79
2022/09/04 14:24:32;;;;;;;0.20;0.20;;;25.90;88.90;;;;;;5063777;28;20033;-78
2022/09/04 14:27:12;;;;;;;0.47;0.40;;;26.00;88.80;;;;;;5038463;28;20037;-78
2022/09/04 14:30:03;;;;;;;0.20;0.20;;;26.00;89.80;;;;;;5038885;28;21414;-76